createdAt,value
2023-03-21T00:03:49.262Z,63.52
2023-03-21T00:07:52.431Z,63.53
2023-03-21T00:11:56.980Z,63.43
2023-03-21T00:16:07.522Z,63.49
2023-03-21T00:20:23.515Z,63.57
2023-03-21T00:24:26.505Z,63.42
2023-03-21T00:28:30.994Z,63.41
2023-03-21T00:32:35.658Z,63.17
2023-03-21T00:36:42.940Z,62.96
2023-03-21T00:40:49.189Z,63.00
2023-03-21T00:44:53.724Z,63.08
2023-03-21T00:48:56.590Z,62.82
2023-03-21T00:53:00.024Z,63.08
2023-03-21T00:57:03.129Z,63.52
2023-03-21T01:01:09.422Z,63.78
2023-03-21T01:05:13.139Z,64.40
2023-03-21T01:09:18.132Z,64.53
2023-03-21T01:13:23.855Z,64.70
2023-03-21T01:17:28.479Z,64.89
2023-03-21T01:21:31.941Z,65.07
2023-03-21T01:25:35.135Z,64.80
2023-03-21T01:29:38.228Z,64.91
2023-03-21T01:33:43.608Z,65.48
2023-03-21T01:37:48.807Z,65.06
2023-03-21T01:41:52.219Z,65.68
2023-03-21T01:46:43.479Z,66.13
2023-03-21T01:51:13.486Z,66.01
2023-03-21T01:55:30.838Z,66.13
2023-03-21T01:59:41.976Z,66.44
2023-03-21T02:04:11.391Z,66.54
2023-03-21T02:08:38.766Z,66.34
2023-03-21T02:12:46.519Z,66.18
2023-03-21T02:16:59.186Z,66.37
2023-03-21T02:21:36.445Z,66.38
2023-03-21T02:26:16.142Z,66.61
2023-03-21T02:31:01.254Z,66.13
2023-03-21T02:35:44.170Z,66.17
2023-03-21T02:40:09.613Z,65.81
2023-03-21T02:44:21.962Z,65.89
2023-03-21T02:48:44.520Z,65.95
2023-03-21T02:52:54.929Z,66.14
2023-03-21T02:57:02.123Z,66.02
2023-03-21T03:01:07.129Z,66.06
2023-03-21T03:05:21.877Z,65.71
2023-03-21T03:09:39.394Z,65.87
2023-03-21T03:13:58.574Z,65.76
2023-03-21T03:18:08.183Z,65.67
2023-03-21T03:22:16.223Z,65.72
2023-03-21T03:26:22.602Z,65.52
2023-03-21T03:30:39.299Z,65.49
2023-03-21T03:34:50.887Z,65.60
2023-03-21T03:38:57.731Z,65.51
2023-03-21T03:43:06.238Z,65.52
2023-03-21T03:47:32.413Z,65.14
2023-03-21T03:51:41.828Z,64.98
2023-03-21T03:56:01.473Z,65.46
2023-03-21T04:00:11.872Z,65.39
2023-03-21T04:04:22.918Z,65.87
2023-03-21T04:08:28.107Z,65.80
2023-03-21T04:12:33.647Z,65.92
2023-03-21T04:17:03.628Z,65.89
2023-03-21T04:21:14.511Z,65.92
2023-03-21T04:25:30.703Z,66.15
2023-03-21T04:29:36.537Z,66.50
2023-03-21T04:34:09.690Z,66.09
2023-03-21T04:38:15.508Z,66.03
2023-03-21T04:42:20.051Z,66.26
2023-03-21T04:46:24.311Z,66.32
2023-03-21T04:50:27.463Z,66.56
2023-03-21T04:54:32.360Z,66.75
2023-03-21T04:58:35.270Z,66.40
2023-03-21T05:02:39.051Z,66.57
2023-03-21T05:06:43.984Z,66.22
2023-03-21T05:10:48.326Z,66.82
2023-03-21T05:14:52.791Z,66.44
2023-03-21T05:18:55.828Z,66.58
2023-03-21T05:22:59.131Z,66.54
2023-03-21T05:27:03.667Z,66.78
2023-03-21T05:31:16.737Z,66.70
2023-03-21T05:35:21.719Z,66.64
2023-03-21T05:39:25.251Z,66.83
2023-03-21T05:43:38.569Z,66.58
2023-03-21T05:47:42.297Z,66.84
2023-03-21T05:51:47.178Z,66.61
2023-03-21T05:55:50.219Z,66.50
2023-03-21T06:00:14.817Z,66.63
2023-03-21T06:04:29.666Z,67.18
2023-03-21T06:08:32.803Z,67.24
2023-03-21T06:12:37.012Z,67.90
2023-03-21T06:16:58.452Z,68.47
2023-03-21T06:21:01.959Z,68.64
2023-03-21T06:25:07.531Z,68.48
2023-03-21T06:29:11.215Z,68.64
2023-03-21T06:33:15.694Z,68.06
2023-03-21T06:37:20.438Z,68.03
2023-03-21T06:41:23.769Z,67.93
2023-03-21T06:45:37.515Z,67.88
2023-03-21T06:49:43.945Z,67.84
2023-03-21T06:53:49.179Z,67.56
2023-03-21T06:57:59.194Z,67.46
2023-03-21T07:02:04.296Z,67.18
2023-03-21T07:06:13.607Z,66.51
2023-03-21T07:10:17.856Z,66.24
2023-03-21T07:14:27.722Z,65.93
2023-03-21T07:18:31.488Z,65.66
2023-03-21T07:22:36.567Z,65.35
2023-03-21T07:26:40.439Z,64.29
2023-03-21T07:30:43.762Z,63.95
2023-03-21T07:34:46.690Z,63.13
2023-03-21T07:38:51.375Z,62.99
2023-03-21T07:42:58.931Z,61.86
2023-03-21T07:47:07.399Z,62.36
2023-03-21T07:51:10.368Z,61.99
2023-03-21T07:55:14.797Z,61.63
2023-03-21T07:59:17.753Z,62.10
2023-03-21T08:03:21.305Z,61.64
2023-03-21T08:07:24.296Z,60.60
2023-03-21T08:11:31.341Z,60.53
2023-03-21T08:15:34.292Z,60.36
2023-03-21T08:19:37.770Z,60.13
2023-03-21T08:23:40.834Z,59.73
2023-03-21T08:27:46.977Z,58.25
2023-03-21T08:31:50.059Z,58.41
2023-03-21T08:35:52.994Z,58.56
2023-03-21T08:39:56.502Z,58.55
2023-03-21T08:44:00.934Z,58.17
2023-03-21T08:48:03.885Z,57.98
2023-03-21T08:52:07.212Z,57.51
2023-03-21T08:56:10.989Z,57.85
2023-03-21T09:00:18.356Z,58.01
2023-03-21T09:04:21.313Z,57.37
2023-03-21T09:08:24.379Z,56.05
2023-03-21T09:12:27.669Z,56.98
2023-03-21T09:16:32.465Z,56.31
2023-03-21T09:20:38.390Z,56.62
2023-03-21T09:24:42.562Z,56.02
2023-03-21T09:28:46.248Z,56.10
2023-03-21T09:32:50.610Z,56.62
2023-03-21T09:36:54.700Z,56.01
2023-03-21T09:41:10.344Z,55.79
2023-03-21T09:45:20.502Z,56.54
2023-03-21T09:49:31.070Z,56.41
2023-03-21T09:53:37.648Z,55.67
2023-03-21T09:57:45.764Z,55.42
2023-03-21T10:01:50.452Z,54.85
2023-03-21T10:05:58.592Z,53.91
2023-03-21T10:10:04.511Z,53.70
2023-03-21T10:14:14.172Z,53.45
2023-03-21T10:18:22.573Z,53.28
2023-03-21T10:22:27.069Z,53.64
2023-03-21T10:26:31.458Z,53.58
2023-03-21T10:30:39.825Z,53.24
2023-03-21T10:34:46.832Z,52.47
2023-03-21T10:38:56.216Z,51.62
2023-03-21T10:43:18.123Z,51.15
2023-03-21T10:47:23.142Z,51.11
2023-03-21T10:51:29.361Z,50.03
2023-03-21T10:55:36.026Z,49.52
2023-03-21T10:59:43.260Z,48.95
2023-03-21T11:03:48.245Z,49.24
2023-03-21T11:07:59.776Z,49.74
2023-03-21T11:12:06.799Z,49.61
2023-03-21T11:16:12.772Z,49.47
2023-03-21T11:20:20.064Z,50.63
2023-03-21T11:24:23.313Z,49.14
2023-03-21T11:28:34.704Z,48.78
2023-03-21T11:32:39.635Z,49.16
2023-03-21T11:36:42.627Z,48.37
2023-03-21T11:40:54.746Z,49.64
2023-03-21T11:45:12.696Z,48.78
2023-03-21T11:49:15.636Z,49.45
2023-03-21T11:53:32.053Z,48.95
2023-03-21T11:57:44.721Z,48.00
2023-03-21T12:01:59.759Z,48.11
2023-03-21T12:06:06.554Z,48.45
2023-03-21T12:10:31.604Z,47.88
2023-03-21T12:14:45.273Z,48.78
2023-03-21T12:19:03.970Z,48.10
2023-03-21T12:23:33.273Z,48.50
2023-03-21T12:27:46.136Z,48.17
2023-03-21T12:31:59.860Z,47.80
2023-03-21T12:36:17.741Z,47.64
2023-03-21T12:40:34.361Z,46.31
2023-03-21T12:44:41.983Z,46.35
2023-03-21T12:48:48.729Z,46.27
2023-03-21T12:52:56.931Z,47.12
2023-03-21T12:57:06.034Z,47.08
2023-03-21T13:01:12.148Z,46.47
2023-03-21T13:05:20.850Z,46.48
2023-03-21T13:09:38.019Z,46.45
2023-03-21T13:13:47.028Z,47.36
2023-03-21T13:17:55.515Z,45.33
2023-03-21T13:22:07.313Z,45.30
2023-03-21T13:26:12.774Z,45.79
2023-03-21T13:30:22.429Z,46.05
2023-03-21T13:34:26.780Z,45.71
2023-03-21T13:38:30.983Z,46.23
2023-03-21T13:42:35.282Z,46.28
2023-03-21T13:46:54.064Z,46.02
2023-03-21T13:51:03.027Z,46.17
2023-03-21T13:55:16.528Z,46.51
2023-03-21T13:59:38.309Z,46.48
2023-03-21T14:03:41.936Z,46.64
2023-03-21T14:07:50.045Z,46.73
2023-03-21T14:11:58.726Z,46.30
2023-03-21T14:16:13.784Z,46.00
2023-03-21T14:20:21.444Z,45.64
2023-03-21T14:24:24.577Z,46.22
2023-03-21T14:28:32.937Z,46.56
2023-03-21T14:32:37.264Z,46.58
2023-03-21T14:36:45.724Z,46.59
2023-03-21T14:40:53.812Z,47.04
2023-03-21T14:45:00.459Z,47.08
2023-03-21T14:49:19.866Z,46.65
2023-03-21T14:53:27.103Z,47.04
2023-03-21T14:57:35.666Z,46.92
2023-03-21T15:01:38.700Z,46.41
2023-03-21T15:05:43.390Z,46.37
2023-03-21T15:09:55.196Z,46.00
2023-03-21T15:14:00.959Z,46.00
2023-03-21T15:18:06.800Z,46.19
2023-03-21T15:22:18.988Z,46.39
2023-03-21T15:26:25.424Z,45.55
2023-03-21T15:30:30.854Z,46.05
2023-03-21T15:34:33.855Z,46.22
2023-03-21T15:38:42.495Z,46.09
2023-03-21T15:42:46.430Z,46.08
2023-03-21T15:46:51.374Z,45.65
2023-03-21T15:51:00.405Z,45.76
2023-03-21T15:55:21.203Z,46.33
2023-03-21T15:59:27.932Z,46.95
2023-03-21T16:03:33.335Z,46.43
2023-03-21T16:07:36.427Z,46.83
2023-03-21T16:11:43.550Z,47.16
2023-03-21T16:15:47.101Z,46.86
2023-03-21T16:19:50.078Z,46.88
2023-03-21T16:23:53.475Z,47.02
2023-03-21T16:27:58.389Z,46.83
2023-03-21T16:32:06.126Z,46.86
2023-03-21T16:36:15.481Z,46.90
2023-03-21T16:40:27.648Z,46.87
2023-03-21T16:44:32.008Z,47.05
2023-03-21T16:48:34.944Z,47.29
2023-03-21T16:52:38.020Z,47.25
2023-03-21T16:56:44.133Z,47.70
2023-03-21T17:00:50.623Z,47.87
2023-03-21T17:04:56.395Z,47.80
2023-03-21T17:09:00.702Z,47.92
2023-03-21T17:13:03.961Z,47.85
2023-03-21T17:17:14.728Z,47.96
2023-03-21T17:21:20.830Z,48.00
2023-03-21T17:25:24.062Z,47.98
2023-03-21T17:29:27.463Z,47.97
2023-03-21T17:33:32.081Z,48.00
2023-03-21T17:37:35.491Z,48.05
2023-03-21T17:41:38.851Z,48.38
2023-03-21T17:45:41.818Z,48.51
2023-03-21T17:49:46.594Z,48.62
2023-03-21T17:53:51.733Z,48.59
2023-03-21T17:57:54.918Z,49.04
2023-03-21T18:01:57.892Z,48.96
2023-03-21T18:06:02.226Z,49.18
2023-03-21T18:10:06.359Z,49.53
2023-03-21T18:14:17.267Z,49.80
2023-03-21T18:18:21.922Z,49.93
2023-03-21T18:22:26.284Z,50.09
2023-03-21T18:26:31.204Z,50.40
2023-03-21T18:30:56.423Z,50.36
2023-03-21T18:34:59.661Z,50.52
2023-03-21T18:39:05.129Z,50.77
2023-03-21T18:43:56.072Z,50.95
2023-03-21T18:47:31.328Z,51.02
2023-03-21T18:51:34.272Z,51.50
2023-03-21T18:55:45.963Z,52.25
2023-03-21T18:59:49.605Z,52.43
2023-03-21T19:04:17.830Z,52.41
2023-03-21T19:08:22.251Z,52.48
2023-03-21T19:12:26.779Z,52.44
2023-03-21T19:16:32.637Z,52.33
2023-03-21T19:20:44.392Z,52.71
2023-03-21T19:24:47.450Z,52.61
2023-03-21T19:28:51.761Z,52.63
2023-03-21T19:32:54.693Z,52.82
2023-03-21T19:36:58.030Z,53.22
2023-03-21T19:41:01.605Z,53.01
2023-03-21T19:45:07.052Z,53.47
2023-03-21T19:49:10.333Z,53.28
2023-03-21T19:53:13.805Z,53.60
2023-03-21T19:57:17.395Z,53.54
2023-03-21T20:01:22.190Z,53.59
2023-03-21T20:05:25.737Z,54.02
2023-03-21T20:09:50.416Z,55.17
2023-03-21T20:13:52.490Z,56.37
2023-03-21T20:17:58.638Z,56.57
2023-03-21T20:22:02.846Z,56.50
2023-03-21T20:26:10.449Z,56.58
2023-03-21T20:30:16.127Z,56.70
2023-03-21T20:34:21.342Z,56.84
2023-03-21T20:38:25.092Z,56.86
2023-03-21T20:42:29.760Z,56.52
2023-03-21T20:46:32.760Z,56.18
2023-03-21T20:50:39.507Z,55.78
2023-03-21T20:54:49.218Z,55.57
2023-03-21T20:59:04.853Z,55.88
2023-03-21T21:03:15.905Z,55.56
2023-03-21T21:07:21.819Z,55.90
2023-03-21T21:12:05.146Z,55.90
2023-03-21T21:15:47.852Z,55.88
2023-03-21T21:19:50.937Z,55.78
2023-03-21T21:23:55.416Z,56.01
2023-03-21T21:27:58.362Z,55.58
2023-03-21T21:32:05.423Z,55.83
2023-03-21T21:36:10.429Z,55.86
2023-03-21T21:40:20.352Z,55.76
2023-03-21T21:44:23.495Z,55.85
2023-03-21T21:48:27.096Z,55.73
2023-03-21T21:52:30.200Z,55.86
2023-03-21T21:56:38.512Z,56.18
2023-03-21T22:00:42.698Z,56.08
2023-03-21T22:04:45.621Z,56.07
2023-03-21T22:08:51.945Z,56.11
2023-03-21T22:12:56.517Z,56.28
2023-03-21T22:17:00.254Z,56.47
2023-03-21T22:21:03.619Z,56.62
2023-03-21T22:25:10.398Z,56.71
2023-03-21T22:29:14.686Z,56.65
2023-03-21T22:33:17.614Z,56.59
2023-03-21T22:37:20.758Z,56.70
2023-03-21T22:41:23.671Z,56.66
2023-03-21T22:45:28.048Z,56.81
2023-03-21T22:49:31.829Z,56.51
2023-03-21T22:53:34.851Z,56.86
2023-03-21T22:57:38.426Z,57.53
2023-03-21T23:01:43.037Z,58.63
2023-03-21T23:05:47.410Z,58.88
2023-03-21T23:09:50.660Z,59.19
2023-03-21T23:14:06.789Z,59.27
2023-03-21T23:18:12.176Z,59.32
2023-03-21T23:22:15.309Z,58.94
2023-03-21T23:26:19.796Z,59.25
2023-03-21T23:30:22.820Z,59.57
2023-03-21T23:34:27.789Z,59.60
2023-03-21T23:38:30.769Z,59.10
2023-03-21T23:42:34.245Z,59.60
2023-03-21T23:46:37.276Z,59.30
2023-03-21T23:50:41.979Z,59.55
2023-03-21T23:54:45.087Z,59.65
2023-03-21T23:58:49.791Z,59.93
